Time;durP1;ratioP1;P1;durP2;ratioP2;P2;SDS_P1;SDS_P2;PMS_P1;PMS_P2;Temp;Humidity;BMP_temperature;BMP_pressure;BME280_temperature;BME280_humidity;BME280_pressure;Samples;Min_cycle;Max_cycle;Signal;HPM_P1;HPM_P2
2023/05/23 00:02:16;;;;;;;35.95;15.77;;;14.70;99.90;;;;;;5072249;28;20106;-84
2023/05/23 00:04:43;;;;;;;41.63;15.30;;;14.70;99.90;;;;;;5071543;28;20029;-84
2023/05/23 00:07:09;;;;;;;28.77;14.90;;;15.10;99.90;;;;;;5071610;28;20101;-84
2023/05/23 00:09:34;;;;;;;23.13;14.45;;;14.50;99.90;;;;;;5072026;28;20055;-84
2023/05/23 00:12:00;;;;;;;30.50;15.68;;;14.60;99.90;;;;;;5071950;28;20028;-84
2023/05/23 00:14:26;;;;;;;27.48;15.85;;;14.50;99.90;;;;;;5071484;28;20033;-85
2023/05/23 00:16:52;;;;;;;29.55;13.90;;;14.60;99.90;;;;;;5071520;28;20036;-85
2023/05/23 00:19:17;;;;;;;22.10;14.68;;;14.70;99.90;;;;;;5072120;28;20035;-84
2023/05/23 00:21:47;;;;;;;22.95;13.70;;;14.60;99.90;;;;;;5070925;28;20451;-84
2023/05/23 00:24:13;;;;;;;27.05;15.05;;;14.60;99.90;;;;;;5071887;28;20040;-85
2023/05/23 00:26:39;;;;;;;24.00;15.25;;;14.60;99.90;;;;;;5071517;28;20417;-84
2023/05/23 00:29:04;;;;;;;30.92;16.75;;;14.80;99.90;;;;;;5071839;28;20016;-84
2023/05/23 00:31:30;;;;;;;19.30;14.57;;;14.70;99.90;;;;;;5071584;28;20055;-84
2023/05/23 00:33:56;;;;;;;28.70;16.45;;;14.70;99.90;;;;;;5070578;28;20016;-84
2023/05/23 00:36:23;;;;;;;24.88;16.05;;;14.60;99.90;;;;;;5071564;28;20127;-85
2023/05/23 00:38:48;;;;;;;28.83;15.98;;;14.60;99.90;;;;;;5071777;28;20074;-84
2023/05/23 00:41:14;;;;;;;28.05;17.52;;;14.50;99.90;;;;;;5071170;28;20025;-84
2023/05/23 00:43:40;;;;;;;31.95;16.02;;;14.60;99.90;;;;;;5071654;28;20050;-84
2023/05/23 00:46:07;;;;;;;26.98;14.40;;;14.50;99.90;;;;;;5071657;28;20029;-84
2023/05/23 00:48:33;;;;;;;37.00;16.30;;;14.60;99.90;;;;;;5070313;28;20540;-84
2023/05/23 00:50:58;;;;;;;21.70;15.27;;;14.50;99.90;;;;;;5071996;28;20145;-84
2023/05/23 00:53:24;;;;;;;31.63;14.48;;;14.60;99.90;;;;;;5071759;28;20020;-85
2023/05/23 00:55:50;;;;;;;34.55;16.20;;;14.70;99.90;;;;;;5070419;28;20116;-84
2023/05/23 00:58:16;;;;;;;34.25;14.82;;;14.60;99.90;;;;;;5071780;28;20051;-85
2023/05/23 01:00:43;;;;;;;27.30;14.00;;;14.60;99.90;;;;;;5071088;28;20583;-85
2023/05/23 01:03:16;;;;;;;26.98;14.43;;;14.50;99.90;;;;;;5070628;28;20385;-85
2023/05/23 01:05:45;;;;;;;27.90;15.25;;;14.50;99.90;;;;;;5071436;28;20503;-84
2023/05/23 01:08:10;;;;;;;31.58;16.85;;;14.60;99.90;;;;;;5075346;28;20027;-84
2023/05/23 01:10:36;;;;;;;27.77;14.85;;;14.40;99.90;;;;;;5074392;28;20021;-84
2023/05/23 01:13:20;;;;;;;20.23;10.75;;;14.50;99.90;;;;;;5075186;28;20032;-85
2023/05/23 01:15:49;;;;;;;19.27;10.38;;;14.40;99.90;;;;;;5074523;28;20055;-85
2023/05/23 01:18:32;;;;;;;23.35;10.70;;;14.30;99.90;;;;;;5074457;28;20023;-85
2023/05/23 01:21:21;;;;;;;18.60;10.40;;;14.30;99.90;;;;;;5074631;28;20047;-85
2023/05/23 01:24:35;;;;;;;17.65;10.00;;;14.40;99.90;;;;;;5073820;28;20036;-85
2023/05/23 01:27:21;;;;;;;12.13;9.80;;;14.40;99.90;;;;;;5068991;28;20029;-85
2023/05/23 01:29:51;;;;;;;18.35;10.27;;;14.30;99.90;;;;;;5074335;28;20021;-84
2023/05/23 01:32:17;;;;;;;;;;;14.30;99.90;;;;;;5073933;28;20024;-84
2023/05/23 01:34:45;;;;;;;16.77;8.90;;;14.20;99.90;;;;;;5073766;28;19962;-84
2023/05/23 01:37:13;;;;;;;16.15;8.85;;;14.30;99.90;;;;;;5074005;28;20087;-84
2023/05/23 01:39:39;;;;;;;16.80;8.73;;;14.40;99.90;;;;;;5074504;28;20025;-84
2023/05/23 01:42:05;;;;;;;14.55;8.40;;;14.30;99.90;;;;;;5074332;28;20025;-84
2023/05/23 01:44:33;;;;;;;22.23;10.23;;;14.30;99.90;;;;;;5073682;28;20021;-84
2023/05/23 01:46:59;;;;;;;12.70;9.50;;;14.20;99.90;;;;;;5074295;28;20028;-83
2023/05/23 01:49:26;;;;;;;22.75;9.93;;;14.30;99.90;;;;;;5074453;28;20032;-84
2023/05/23 01:51:52;;;;;;;18.65;10.10;;;14.30;99.90;;;;;;5073496;28;20036;-84
2023/05/23 01:54:18;;;;;;;20.52;10.20;;;14.20;99.90;;;;;;5074273;28;20021;-84
2023/05/23 01:56:44;;;;;;;23.70;9.40;;;14.20;99.90;;;;;;5073956;28;20139;-84
2023/05/23 01:59:10;;;;;;;19.58;10.43;;;14.20;99.90;;;;;;5073247;28;20518;-83
2023/05/23 02:01:37;;;;;;;19.92;11.10;;;14.30;99.90;;;;;;5073702;28;20103;-85
2023/05/23 02:04:03;;;;;;;19.77;10.00;;;14.20;99.90;;;;;;5073998;28;20028;-85
2023/05/23 02:06:28;;;;;;;15.52;10.75;;;14.30;99.90;;;;;;5073083;28;20021;-85
2023/05/23 02:08:54;;;;;;;29.13;12.57;;;14.30;99.90;;;;;;5073334;28;20028;-84
2023/05/23 02:11:21;;;;;;;39.55;15.13;;;14.30;99.90;;;;;;5073553;28;20024;-84
2023/05/23 02:13:46;;;;;;;31.55;15.25;;;14.40;99.90;;;;;;5073008;28;20028;-84
2023/05/23 02:16:12;;;;;;;34.40;15.00;;;14.40;99.90;;;;;;5073553;28;20036;-85
2023/05/23 02:18:38;;;;;;;26.17;14.18;;;14.50;99.90;;;;;;5073490;28;20468;-84
2023/05/23 02:21:06;;;;;;;34.05;15.85;;;14.50;99.90;;;;;;5072876;28;20028;-84
2023/05/23 02:23:32;;;;;;;40.55;15.32;;;14.50;99.90;;;;;;5070949;28;20119;-84
2023/05/23 02:25:58;;;;;;;28.42;14.10;;;14.50;99.90;;;;;;5073871;28;20063;-84
2023/05/23 02:28:23;;;;;;;27.27;13.82;;;14.50;99.90;;;;;;5073067;28;20552;-84
2023/05/23 02:30:49;;;;;;;27.55;13.00;;;14.40;99.90;;;;;;5073342;28;20107;-84
2023/05/23 02:33:15;;;;;;;31.27;12.45;;;14.40;99.90;;;;;;5073652;28;20116;-84
2023/05/23 02:35:41;;;;;;;30.63;13.25;;;14.40;99.90;;;;;;5073192;28;20037;-84
2023/05/23 02:38:06;;;;;;;30.63;13.45;;;14.40;99.90;;;;;;5073458;28;20546;-84
2023/05/23 02:40:32;;;;;;;31.10;14.40;;;14.60;99.90;;;;;;5072571;28;20454;-84
2023/05/23 02:42:57;;;;;;;32.85;13.07;;;14.50;99.90;;;;;;5073266;28;20427;-84
2023/05/23 02:45:23;;;;;;;30.80;11.43;;;14.50;99.90;;;;;;5073186;28;20032;-84
2023/05/23 02:47:48;;;;;;;30.33;12.20;;;14.60;99.90;;;;;;5072344;28;20020;-84
2023/05/23 02:50:14;;;;;;;28.42;11.05;;;14.60;99.90;;;;;;5073175;28;20036;-84
2023/05/23 02:52:41;;;;;;;27.30;11.82;;;14.60;99.90;;;;;;5073157;28;20100;-84
2023/05/23 02:55:07;;;;;;;21.58;11.80;;;14.60;99.90;;;;;;5072572;28;20036;-84
2023/05/23 02:57:33;;;;;;;23.95;12.43;;;14.60;99.90;;;;;;5072754;28;20115;-84
2023/05/23 02:59:58;;;;;;;31.50;13.23;;;14.50;99.90;;;;;;5073128;28;20029;-84
2023/05/23 03:02:24;;;;;;;28.55;12.65;;;14.50;99.90;;;;;;5072400;28;20039;-84
2023/05/23 03:04:50;;;;;;;30.65;13.00;;;14.60;99.90;;;;;;5072848;28;20523;-84
2023/05/23 03:07:15;;;;;;;26.55;13.10;;;14.60;99.90;;;;;;5073058;28;20032;-84
2023/05/23 03:09:41;;;;;;;35.28;12.48;;;14.50;99.90;;;;;;5071800;28;20070;-84
2023/05/23 03:12:07;;;;;;;32.97;13.00;;;14.40;99.90;;;;;;5073030;28;20024;-84
2023/05/23 03:14:32;;;;;;;34.00;13.25;;;14.30;99.90;;;;;;5072409;28;20052;-84
2023/05/23 03:16:58;;;;;;;34.47;13.82;;;14.40;99.90;;;;;;5072251;28;20498;-85
2023/05/23 03:19:23;;;;;;;35.80;12.35;;;14.30;99.90;;;;;;5072900;28;20488;-84
2023/05/23 03:21:51;;;;;;;35.10;13.30;;;14.20;99.90;;;;;;5072560;28;20401;-85
2023/05/23 03:24:16;;;;;;;26.08;11.52;;;14.20;99.90;;;;;;5072193;28;20407;-84
2023/05/23 03:26:42;;;;;;;31.35;12.80;;;14.20;99.90;;;;;;5072563;28;20020;-84
2023/05/23 03:29:09;;;;;;;41.35;13.25;;;14.20;99.90;;;;;;5071992;28;20067;-84
2023/05/23 03:31:35;;;;;;;29.38;11.40;;;14.00;99.90;;;;;;5071992;28;20039;-84
2023/05/23 03:34:01;;;;;;;28.58;10.73;;;14.00;99.90;;;;;;5072593;28;20029;-84
2023/05/23 03:36:27;;;;;;;25.75;9.90;;;14.10;99.90;;;;;;5071708;28;20055;-85
2023/05/23 03:38:52;;;;;;;21.58;10.75;;;14.10;99.90;;;;;;5070931;28;20025;-85
2023/05/23 03:41:18;;;;;;;25.95;11.05;;;14.10;99.90;;;;;;5072455;28;20468;-84
2023/05/23 03:43:43;;;;;;;23.52;9.98;;;14.10;99.90;;;;;;5071348;28;20381;-85
2023/05/23 03:46:09;;;;;;;29.45;9.20;;;14.00;99.90;;;;;;5072584;28;20583;-84
2023/05/23 03:48:35;;;;;;;25.27;9.93;;;14.10;99.90;;;;;;5072256;28;20435;-84
2023/05/23 03:51:01;;;;;;;20.08;8.52;;;14.00;99.90;;;;;;5071767;28;20028;-84
2023/05/23 03:53:26;;;;;;;23.70;8.73;;;14.00;99.90;;;;;;5072379;28;20020;-84
2023/05/23 03:55:52;;;;;;;17.73;7.07;;;13.80;99.90;;;;;;5071393;28;20510;-84
2023/05/23 03:58:19;;;;;;;27.33;7.22;;;13.80;99.90;;;;;;5071517;28;20028;-84
2023/05/23 04:00:45;;;;;;;21.02;7.72;;;13.80;99.90;;;;;;5072224;28;20028;-84
2023/05/23 04:03:13;;;;;;;16.02;6.97;;;13.70;99.90;;;;;;5072518;28;20082;-85
2023/05/23 04:05:38;;;;;;;24.73;7.32;;;13.70;99.90;;;;;;5071295;28;20032;-85
2023/05/23 04:08:04;;;;;;;17.75;6.70;;;13.60;99.90;;;;;;5072147;28;20042;-85
2023/05/23 04:10:30;;;;;;;22.10;6.05;;;13.60;99.90;;;;;;5071481;28;20131;-86
2023/05/23 04:12:55;;;;;;;20.15;6.03;;;13.60;99.90;;;;;;5070447;28;20021;-85
2023/05/23 04:15:21;;;;;;;33.33;6.38;;;13.70;99.90;;;;;;5071837;28;20498;-85
2023/05/23 04:17:46;;;;;;;18.30;5.57;;;13.60;99.90;;;;;;5071608;28;20503;-84
2023/05/23 04:20:12;;;;;;;19.52;5.60;;;13.60;99.90;;;;;;5071089;28;20032;-85
2023/05/23 04:22:38;;;;;;;22.95;6.32;;;13.70;99.90;;;;;;5071771;28;20044;-85
2023/05/23 04:25:05;;;;;;;16.92;6.57;;;13.60;99.90;;;;;;5072025;28;20024;-85
2023/05/23 04:27:30;;;;;;;16.73;5.28;;;13.60;99.90;;;;;;5071641;28;20028;-85
2023/05/23 04:29:57;;;;;;;16.05;5.25;;;13.60;99.90;;;;;;5071504;28;20033;-86
2023/05/23 04:32:24;;;;;;;13.85;5.40;;;13.60;99.90;;;;;;5072066;28;20027;-85
2023/05/23 04:34:49;;;;;;;16.85;5.45;;;13.50;99.90;;;;;;5070975;28;20115;-85
2023/05/23 04:37:16;;;;;;;23.73;6.63;;;13.50;99.90;;;;;;5072094;28;20040;-85
2023/05/23 04:39:41;;;;;;;18.10;5.70;;;13.50;99.90;;;;;;5071602;28;20442;-84
2023/05/23 04:42:07;;;;;;;16.67;5.53;;;13.40;99.90;;;;;;5075479;28;20025;-84
2023/05/23 04:44:36;;;;;;;18.00;5.28;;;13.30;99.90;;;;;;5075586;28;20250;-85
2023/05/23 04:47:01;;;;;;;20.77;5.32;;;13.20;99.90;;;;;;5074731;28;20086;-85
2023/05/23 04:49:28;;;;;;;14.25;5.35;;;13.10;99.90;;;;;;5075660;28;20476;-85
2023/05/23 04:51:53;;;;;;;13.55;4.80;;;13.20;99.90;;;;;;5075026;28;20032;-85
2023/05/23 04:54:19;;;;;;;12.35;4.57;;;13.20;99.90;;;;;;5074396;28;20039;-84
2023/05/23 04:56:45;;;;;;;16.02;5.57;;;13.20;99.90;;;;;;5074991;28;20487;-84
2023/05/23 04:59:12;;;;;;;20.90;5.22;;;13.50;99.90;;;;;;5075280;28;20013;-84
2023/05/23 05:01:40;;;;;;;19.73;6.57;;;13.20;99.90;;;;;;5074258;28;20448;-84
2023/05/23 05:04:06;;;;;;;14.05;6.03;;;13.20;99.90;;;;;;5075332;28;20046;-84
2023/05/23 05:06:32;;;;;;;13.30;6.43;;;13.20;99.90;;;;;;5075063;28;20539;-84
2023/05/23 05:08:57;;;;;;;19.52;7.50;;;13.20;99.90;;;;;;5074388;28;20107;-84
2023/05/23 05:11:23;;;;;;;21.83;7.32;;;13.20;99.90;;;;;;5074751;28;20059;-84
2023/05/23 05:13:49;;;;;;;20.13;6.65;;;13.10;99.90;;;;;;5075045;28;20032;-84
2023/05/23 05:16:14;;;;;;;20.63;7.03;;;13.00;99.90;;;;;;5074210;28;20123;-84
2023/05/23 05:18:41;;;;;;;31.33;7.65;;;13.00;99.90;;;;;;5074657;28;20020;-84
2023/05/23 05:21:06;;;;;;;21.30;7.60;;;13.10;99.90;;;;;;5075259;28;20028;-84
2023/05/23 05:23:32;;;;;;;17.55;7.63;;;13.10;99.90;;;;;;5073797;28;20530;-84
2023/05/23 05:25:59;;;;;;;20.08;7.43;;;13.10;99.90;;;;;;5074978;28;20035;-84
2023/05/23 05:28:24;;;;;;;24.42;8.63;;;13.00;99.90;;;;;;5074801;28;20028;-84
2023/05/23 05:30:53;;;;;;;23.65;7.07;;;13.10;99.90;;;;;;5073521;28;20487;-84
2023/05/23 05:33:22;;;;;;;22.65;8.15;;;13.10;99.90;;;;;;5074656;28;20472;-84
2023/05/23 05:35:48;;;;;;;23.75;7.80;;;13.10;99.90;;;;;;5074143;28;20124;-84
2023/05/23 05:38:13;;;;;;;28.70;8.98;;;13.10;99.90;;;;;;5073817;28;20123;-84
2023/05/23 05:40:39;;;;;;;21.48;8.10;;;13.10;99.90;;;;;;5073873;28;20029;-84
2023/05/23 05:43:05;;;;;;;28.83;7.95;;;13.00;99.90;;;;;;5074482;28;20079;-84
2023/05/23 05:45:31;;;;;;;22.83;8.18;;;13.70;99.90;;;;;;5073784;28;20031;-84
2023/05/23 05:47:57;;;;;;;19.25;8.75;;;13.00;99.90;;;;;;5074597;28;20028;-84
2023/05/23 05:50:23;;;;;;;28.27;8.98;;;13.10;99.90;;;;;;5073752;28;20034;-86
2023/05/23 05:52:48;;;;;;;21.85;8.90;;;13.10;99.90;;;;;;5072931;28;20024;-84
2023/05/23 05:55:14;;;;;;;29.30;10.85;;;13.10;99.90;;;;;;5073240;28;20054;-84
2023/05/23 05:57:40;;;;;;;23.60;9.00;;;13.00;99.90;;;;;;5072847;28;20069;-84
2023/05/23 06:00:12;;;;;;;25.05;9.13;;;13.00;99.90;;;;;;5072355;28;20058;-84
2023/05/23 06:02:38;;;;;;;20.13;9.20;;;13.00;99.90;;;;;;5072660;28;20036;-85
2023/05/23 06:05:06;;;;;;;25.35;9.65;;;13.00;99.90;;;;;;5072402;28;20032;-84
2023/05/23 06:07:32;;;;;;;24.05;9.20;;;13.00;99.90;;;;;;5072849;28;20040;-84
2023/05/23 06:09:58;;;;;;;23.52;8.38;;;13.20;99.90;;;;;;5072699;28;20504;-84
2023/05/23 06:12:23;;;;;;;21.15;8.63;;;13.10;99.90;;;;;;5072806;28;20127;-84
2023/05/23 06:14:49;;;;;;;19.70;9.02;;;13.10;99.90;;;;;;5072740;28;20024;-84
2023/05/23 06:17:15;;;;;;;26.40;8.48;;;13.20;99.90;;;;;;5073515;28;20028;-84
2023/05/23 06:19:40;;;;;;;16.40;7.72;;;13.10;99.90;;;;;;5072117;28;20035;-84
2023/05/23 06:22:06;;;;;;;23.33;7.88;;;13.00;99.90;;;;;;5072634;28;20025;-84
2023/05/23 06:24:31;;;;;;;24.58;7.93;;;13.10;99.90;;;;;;5072967;28;20048;-84
2023/05/23 06:26:57;;;;;;;21.08;7.15;;;13.20;99.90;;;;;;5071601;28;20016;-84
2023/05/23 06:29:23;;;;;;;19.95;8.68;;;13.20;99.90;;;;;;5073272;28;20071;-84
2023/05/23 06:31:48;;;;;;;14.90;7.82;;;13.20;99.90;;;;;;5072815;28;20017;-84
2023/05/23 06:34:15;;;;;;;21.20;7.65;;;13.30;99.90;;;;;;5071920;28;20035;-84
2023/05/23 06:36:41;;;;;;;17.02;7.55;;;13.20;99.90;;;;;;5072487;28;20108;-83
2023/05/23 06:39:08;;;;;;;17.38;7.18;;;13.30;99.90;;;;;;5072739;28;20384;-83
2023/05/23 06:41:34;;;;;;;18.15;7.03;;;13.20;99.90;;;;;;5071856;28;20392;-83
2023/05/23 06:44:00;;;;;;;16.92;6.40;;;13.20;99.90;;;;;;5073155;28;20024;-83
2023/05/23 06:46:25;;;;;;;12.82;5.38;;;13.30;99.90;;;;;;5072183;28;20506;-84
2023/05/23 06:48:51;;;;;;;12.23;4.93;;;13.30;99.90;;;;;;5072285;28;20539;-83
2023/05/23 06:51:17;;;;;;;13.10;4.65;;;13.30;99.90;;;;;;5072352;28;20361;-82
2023/05/23 06:53:42;;;;;;;12.05;4.22;;;13.20;99.90;;;;;;5071516;28;20593;-83
2023/05/23 06:56:08;;;;;;;13.77;4.00;;;13.20;99.90;;;;;;5071814;28;20032;-83
2023/05/23 06:58:33;;;;;;;13.30;4.68;;;13.10;99.90;;;;;;5072364;28;20085;-83
2023/05/23 07:00:59;;;;;;;6.70;4.05;;;13.20;99.90;;;;;;5071297;28;20103;-83
2023/05/23 07:03:24;;;;;;;8.23;3.78;;;13.20;99.90;;;;;;5071723;28;20067;-84
2023/05/23 07:05:50;;;;;;;6.82;3.65;;;13.10;99.90;;;;;;5071637;28;20514;-84
2023/05/23 07:08:15;;;;;;;11.82;4.18;;;13.10;99.90;;;;;;5070263;28;20111;-84
2023/05/23 07:10:41;;;;;;;8.15;3.15;;;13.10;99.90;;;;;;5070082;28;20028;-83
2023/05/23 07:13:06;;;;;;;12.27;3.60;;;13.10;99.90;;;;;;5069541;28;20028;-83
2023/05/23 07:15:32;;;;;;;5.82;2.88;;;13.20;99.90;;;;;;5068452;28;20120;-83
2023/05/23 07:17:57;;;;;;;12.77;3.13;;;13.20;99.90;;;;;;5068823;28;20060;-83
2023/05/23 07:20:23;;;;;;;10.27;3.53;;;13.10;99.90;;;;;;5068975;28;20108;-83
2023/05/23 07:22:50;;;;;;;10.85;2.47;;;13.20;99.90;;;;;;5069724;28;20630;-83
2023/05/23 07:25:16;;;;;;;8.43;2.88;;;13.10;99.90;;;;;;5071758;28;20099;-83
2023/05/23 07:27:41;;;;;;;10.15;3.42;;;14.30;99.90;;;;;;5070588;28;20031;-83
2023/05/23 07:30:10;;;;;;;10.38;2.97;;;13.30;99.90;;;;;;5069093;28;20029;-83
2023/05/23 07:32:36;;;;;;;7.70;2.75;;;13.40;99.90;;;;;;5071134;28;20025;-84
2023/05/23 07:35:02;;;;;;;13.35;3.20;;;13.50;99.90;;;;;;5071107;28;20040;-84
2023/05/23 07:37:27;;;;;;;10.48;3.22;;;13.60;99.90;;;;;;5071250;28;20024;-84
2023/05/23 07:39:53;;;;;;;13.40;3.78;;;13.60;99.90;;;;;;5071246;28;20058;-84
2023/05/23 07:42:18;;;;;;;17.33;4.15;;;13.80;99.90;;;;;;5071812;28;20036;-83
2023/05/23 07:44:44;;;;;;;15.85;3.85;;;13.80;99.90;;;;;;5070928;28;20021;-83
2023/05/23 07:47:10;;;;;;;12.35;3.17;;;13.80;99.90;;;;;;5071880;28;20025;-82
2023/05/23 07:49:35;;;;;;;14.63;3.90;;;13.90;99.90;;;;;;5071769;28;20025;-81
2023/05/23 07:52:01;;;;;;;15.13;4.90;;;14.00;99.90;;;;;;5072216;28;20024;-82
2023/05/23 07:54:26;;;;;;;15.10;4.60;;;14.00;99.90;;;;;;5067654;28;20021;-83
2023/05/23 07:56:53;;;;;;;16.20;4.70;;;14.10;99.90;;;;;;5069318;28;20032;-83
2023/05/23 07:59:19;;;;;;;12.65;3.28;;;14.20;99.90;;;;;;5069900;28;20021;-83
2023/05/23 08:01:44;;;;;;;16.48;4.05;;;14.20;99.90;;;;;;5069774;28;20021;-83
2023/05/23 08:04:10;;;;;;;13.07;3.90;;;14.20;99.90;;;;;;5069122;28;20439;-83
2023/05/23 08:06:36;;;;;;;20.92;4.70;;;14.20;99.90;;;;;;5070500;28;20062;-83
2023/05/23 08:09:03;;;;;;;20.30;4.40;;;14.10;99.90;;;;;;5069490;28;20024;-83
2023/05/23 08:11:29;;;;;;;20.70;4.07;;;14.00;99.90;;;;;;5065522;28;20029;-83
2023/05/23 08:13:55;;;;;;;14.65;3.45;;;14.10;99.90;;;;;;5069976;28;20020;-83
2023/05/23 08:16:20;;;;;;;12.82;3.90;;;14.10;99.90;;;;;;5073172;28;20059;-82
2023/05/23 08:18:46;;;;;;;17.67;3.83;;;14.10;99.90;;;;;;5072385;28;20028;-83
2023/05/23 08:21:11;;;;;;;16.80;3.55;;;14.10;99.90;;;;;;5074347;28;20448;-84
2023/05/23 08:23:37;;;;;;;27.25;3.53;;;14.10;99.90;;;;;;5072984;28;20043;-82
2023/05/23 08:26:03;;;;;;;16.42;3.83;;;14.20;99.90;;;;;;5073255;28;20503;-83
2023/05/23 08:28:28;;;;;;;19.85;4.03;;;14.30;99.90;;;;;;5074043;28;20024;-83
2023/05/23 08:30:56;;;;;;;17.00;3.60;;;14.40;99.90;;;;;;5073538;28;20028;-82
2023/05/23 08:33:21;;;;;;;14.18;3.97;;;14.30;99.90;;;;;;5073268;28;20029;-84
2023/05/23 08:35:47;;;;;;;22.90;4.05;;;14.20;99.90;;;;;;5075495;28;20032;-79
2023/05/23 08:38:13;;;;;;;14.30;4.47;;;14.40;99.90;;;;;;5075684;28;20407;-83
2023/05/23 08:40:42;;;;;;;11.82;3.95;;;14.50;99.90;;;;;;5072534;28;20395;-83
2023/05/23 08:43:09;;;;;;;11.45;4.30;;;14.50;99.90;;;;;;5073467;28;20099;-82
2023/05/23 08:45:34;;;;;;;17.27;3.63;;;14.60;99.90;;;;;;5071432;28;20103;-82
2023/05/23 08:48:01;;;;;;;20.02;3.67;;;14.60;99.90;;;;;;5073401;28;20661;-82
2023/05/23 08:50:29;;;;;;;23.73;3.67;;;14.60;99.90;;;;;;5074369;28;20086;-83
2023/05/23 08:52:58;;;;;;;19.00;4.88;;;14.40;99.90;;;;;;5074317;28;20431;-83
2023/05/23 08:55:27;;;;;;;13.82;3.50;;;14.40;99.90;;;;;;5074928;28;20040;-85
2023/05/23 08:57:54;;;;;;;20.97;4.23;;;14.30;99.90;;;;;;5075113;28;20125;-84
2023/05/23 09:00:21;;;;;;;15.98;3.60;;;14.50;99.90;;;;;;5074585;28;20099;-83
2023/05/23 09:02:47;;;;;;;12.73;3.15;;;14.60;99.90;;;;;;5075218;28;20029;-84
2023/05/23 09:05:13;;;;;;;23.23;4.00;;;14.70;99.90;;;;;;5075501;28;20032;-86
2023/05/23 09:07:39;;;;;;;16.83;3.65;;;14.80;99.90;;;;;;5074521;28;20055;-85
2023/05/23 09:10:09;;;;;;;16.35;3.58;;;15.40;99.90;;;;;;5075448;28;20460;-84
2023/05/23 09:12:36;;;;;;;18.13;3.92;;;15.00;99.90;;;;;;5075038;28;20480;-90
2023/05/23 09:15:03;;;;;;;35.42;4.93;;;15.10;99.90;;;;;;5074631;28;20044;-83
2023/05/23 09:17:32;;;;;;;29.33;5.63;;;15.20;99.90;;;;;;5075814;28;20032;-86
2023/05/23 09:19:58;;;;;;;17.02;4.13;;;14.80;99.90;;;;;;5131667;22;20048;-88
2023/05/23 09:22:27;;;;;;;10.35;3.15;;;15.30;99.90;;;;;;5074943;28;20066;-88
2023/05/23 09:24:56;;;;;;;26.88;5.32;;;15.30;99.90;;;;;;5075196;28;20116;-88
2023/05/23 09:27:22;;;;;;;13.63;3.60;;;16.00;99.90;;;;;;5073722;28;20021;-85
2023/05/23 09:29:49;;;;;;;14.20;3.30;;;15.30;99.90;;;;;;5074485;28;20111;-89
2023/05/23 09:32:16;;;;;;;11.95;3.00;;;15.10;99.90;;;;;;5073816;28;20464;-86
2023/05/23 09:35:11;;;;;;;13.25;3.63;;;15.00;99.90;;;;;;5074582;28;20032;-85
2023/05/23 09:37:54;;;;;;;20.67;4.50;;;15.60;99.90;;;;;;5039188;28;20392;-89
2023/05/23 09:40:32;;;;;;;13.43;4.13;;;17.60;99.90;;;;;;5054338;28;20091;-88
2023/05/23 09:43:16;;;;;;;16.10;3.45;;;15.20;99.90;;;;;;5052893;28;20501;-88
2023/05/23 09:45:55;;;;;;;21.48;4.65;;;17.90;99.90;;;;;;5054315;28;20025;-85
2023/05/23 09:48:28;;;;;;;17.70;3.50;;;16.20;99.90;;;;;;5054853;28;20485;-84
2023/05/23 09:50:54;;;;;;;18.70;3.92;;;15.60;99.90;;;;;;5061410;28;20040;-88
2023/05/23 09:53:22;;;;;;;32.78;4.90;;;15.60;99.90;;;;;;5057488;28;20021;-89
2023/05/23 09:55:57;;;;;;;12.77;3.97;;;15.20;99.90;;;;;;5055605;28;20037;-83
2023/05/23 09:58:25;;;;;;;15.80;3.63;;;15.60;99.90;;;;;;5074031;28;20044;-93
2023/05/23 10:00:55;;;;;;;11.48;3.35;;;16.40;99.90;;;;;;5076908;28;20272;-90
2023/05/23 10:03:39;;;;;;;18.02;3.45;;;16.30;99.90;;;;;;5066449;28;20104;-92
2023/05/23 10:06:28;;;;;;;8.82;3.33;;;16.30;99.90;;;;;;5053503;28;20040;-93
2023/05/23 10:09:01;;;;;;;16.70;3.78;;;15.50;99.90;;;;;;5052663;28;20075;-89
2023/05/23 10:12:18;;;;;;;16.15;3.75;;;15.50;99.90;;;;;;5052779;28;20052;-85
2023/05/23 10:14:56;;;;;;;14.30;3.88;;;15.50;99.90;;;;;;5055563;28;20052;-86
2023/05/23 10:17:30;;;;;;;16.67;3.90;;;15.50;99.90;;;;;;5073844;28;20392;-85
2023/05/23 10:20:15;;;;;;;15.88;3.90;;;15.30;99.90;;;;;;5055154;28;20124;-85
2023/05/23 10:22:41;;;;;;;15.52;3.70;;;15.30;99.90;;;;;;5071579;28;20138;-86
2023/05/23 10:25:09;;;;;;;15.93;3.58;;;15.30;99.90;;;;;;5072616;28;20031;-85
2023/05/23 10:27:36;;;;;;;13.60;2.95;;;15.40;99.90;;;;;;5072754;28;20495;-86
2023/05/23 10:30:02;;;;;;;26.27;3.20;;;15.50;99.90;;;;;;5076435;28;20063;-87
2023/05/23 10:32:28;;;;;;;12.30;3.05;;;15.50;99.90;;;;;;5076224;28;20431;-86
2023/05/23 10:35:09;;;;;;;14.45;3.72;;;15.50;99.90;;;;;;5073456;28;20032;-86
2023/05/23 10:37:35;;;;;;;;;;;15.50;99.90;;;;;;5073673;28;20036;-86
2023/05/23 10:40:05;;;;;;;14.75;3.20;;;15.50;99.90;;;;;;5073020;28;19905;-86
2023/05/23 10:42:40;;;;;;;18.10;4.65;;;15.50;99.90;;;;;;5073310;28;20473;-86
2023/05/23 10:45:19;;;;;;;13.38;3.65;;;15.50;99.90;;;;;;5073264;28;20111;-89
2023/05/23 10:47:51;;;;;;;16.17;4.20;;;15.40;99.90;;;;;;5072415;28;20499;-86
2023/05/23 10:50:31;;;;;;;13.85;3.67;;;15.40;99.90;;;;;;5073387;28;20028;-85
2023/05/23 10:53:00;;;;;;;12.05;3.15;;;15.40;99.90;;;;;;5072468;28;20490;-85
2023/05/23 10:55:26;;;;;;;11.55;3.42;;;15.60;99.90;;;;;;5071463;28;20468;-89
2023/05/23 10:58:31;;;;;;;9.55;3.15;;;15.30;99.90;;;;;;5071412;28;20025;-89
2023/05/23 11:01:03;;;;;;;16.55;3.75;;;15.40;99.90;;;;;;4988260;28;20541;-89
2023/05/23 11:03:30;;;;;;;18.02;3.83;;;15.40;99.90;;;;;;5059564;28;20029;-88
2023/05/23 11:05:56;;;;;;;21.83;4.13;;;15.40;99.90;;;;;;5069713;28;20086;-86
2023/05/23 11:08:23;;;;;;;16.73;3.50;;;15.30;99.90;;;;;;5066916;28;20107;-87
2023/05/23 11:10:52;;;;;;;13.80;4.07;;;15.40;99.90;;;;;;5067599;28;20392;-86
2023/05/23 11:13:21;;;;;;;16.45;3.67;;;15.40;99.90;;;;;;5063655;28;20419;-87
2023/05/23 11:15:48;;;;;;;11.75;2.92;;;15.40;99.90;;;;;;5066695;28;20067;-88
2023/05/23 11:18:26;;;;;;;17.98;4.25;;;15.40;99.90;;;;;;5068473;28;20066;-89
2023/05/23 11:20:53;;;;;;;11.45;3.63;;;15.30;99.90;;;;;;5069281;28;20045;-88
2023/05/23 11:23:20;;;;;;;15.80;3.97;;;15.30;99.90;;;;;;5074748;28;20096;-87
2023/05/23 11:25:52;;;;;;;22.90;4.35;;;15.30;99.90;;;;;;5067684;28;20064;-85
2023/05/23 11:28:18;;;;;;;11.38;4.05;;;15.30;99.90;;;;;;5060941;28;20512;-87
2023/05/23 11:30:47;;;;;;;13.82;4.10;;;15.50;99.90;;;;;;5067497;28;20060;-87
2023/05/23 11:33:15;;;;;;;18.77;3.78;;;15.60;99.90;;;;;;5070414;28;20391;-88
2023/05/23 11:35:42;;;;;;;12.35;3.63;;;15.60;99.90;;;;;;5069192;28;20095;-87
2023/05/23 11:38:08;;;;;;;14.30;3.95;;;15.60;99.90;;;;;;5071394;28;20020;-88
2023/05/23 11:40:41;;;;;;;14.52;3.92;;;15.60;99.90;;;;;;5071890;28;20111;-88
2023/05/23 11:43:12;;;;;;;24.58;4.03;;;15.70;99.90;;;;;;5071991;28;20329;-88
2023/05/23 11:45:38;;;;;;;11.65;3.88;;;15.70;99.90;;;;;;5072209;28;20035;-89
2023/05/23 11:48:05;;;;;;;12.13;3.45;;;15.70;99.90;;;;;;5073098;28;20017;-89
2023/05/23 11:50:31;;;;;;;13.63;3.03;;;15.60;99.90;;;;;;5071730;28;20025;-89
2023/05/23 11:52:57;;;;;;;19.95;3.83;;;15.70;99.90;;;;;;5067804;28;20032;-85
2023/05/23 11:55:22;;;;;;;11.55;3.72;;;15.70;99.90;;;;;;5071256;28;20025;-85
2023/05/23 11:57:50;;;;;;;10.68;3.40;;;15.70;99.90;;;;;;5071053;28;20423;-86
2023/05/23 12:00:17;;;;;;;16.60;4.53;;;16.30;99.90;;;;;;5071880;28;20035;-86
2023/05/23 12:02:44;;;;;;;18.90;3.92;;;15.70;99.90;;;;;;5071733;28;20090;-87
2023/05/23 12:05:14;;;;;;;19.27;3.92;;;15.80;99.90;;;;;;5068135;28;20103;-86
2023/05/23 12:07:43;;;;;;;;;;;15.80;99.90;;;;;;5071979;28;20017;-86
2023/05/23 12:10:10;;;;;;;16.23;3.38;;;15.80;99.90;;;;;;5070773;28;19970;-85
2023/05/23 12:12:36;;;;;;;14.90;3.95;;;15.80;99.90;;;;;;5071790;28;20032;-85
2023/05/23 12:15:02;;;;;;;9.55;3.65;;;15.90;99.90;;;;;;5071297;28;20036;-85
2023/05/23 12:17:28;;;;;;;17.02;3.90;;;15.90;99.90;;;;;;5072786;28;20063;-86
2023/05/23 12:19:53;;;;;;;21.55;3.75;;;16.10;99.90;;;;;;5067940;28;20062;-85
2023/05/23 12:22:23;;;;;;;10.65;3.22;;;16.00;99.90;;;;;;5067299;28;20027;-86
2023/05/23 12:24:53;;;;;;;13.50;3.10;;;16.00;99.90;;;;;;5066564;28;20519;-86
2023/05/23 12:27:18;;;;;;;14.65;3.70;;;15.90;99.90;;;;;;5067505;28;20031;-85
2023/05/23 12:29:52;;;;;;;5.68;2.63;;;15.80;99.90;;;;;;5067116;28;20028;-86
2023/05/23 12:32:18;;;;;;;13.48;2.95;;;15.80;99.90;;;;;;5068932;28;20027;-85
2023/05/23 12:34:44;;;;;;;11.85;3.15;;;15.80;99.90;;;;;;5071537;28;20021;-85
2023/05/23 12:37:13;;;;;;;14.10;3.92;;;15.80;99.90;;;;;;5072019;28;20033;-85
2023/05/23 12:39:42;;;;;;;14.05;3.53;;;15.80;99.90;;;;;;5071002;28;20032;-86